Time;durP1;ratioP1;P1;durP2;ratioP2;P2;SDS_P1;SDS_P2;PMS_P1;PMS_P2;Temp;Humidity;BMP_temperature;BMP_pressure;BME280_temperature;BME280_humidity;BME280_pressure;Samples;Min_cycle;Max_cycle;Signal;HPM_P1;HPM_P2
2023/07/13 00:01:49;;;;;;;2.25;0.73;;;21.50;87.20;;;;;;5070810;28;20024;-80
2023/07/13 00:04:17;;;;;;;1.83;0.80;;;21.50;87.10;;;;;;5072691;28;20016;-83
2023/07/13 00:06:44;;;;;;;2.92;0.70;;;21.50;86.90;;;;;;5073256;28;20078;-84
2023/07/13 00:09:15;;;;;;;4.28;0.90;;;21.40;87.00;;;;;;5072907;28;20073;-84
2023/07/13 00:11:41;;;;;;;2.17;0.60;;;21.40;87.40;;;;;;5073467;28;20032;-83
2023/07/13 00:14:07;;;;;;;0.73;0.57;;;21.40;87.90;;;;;;5072296;28;20253;-84
2023/07/13 00:16:35;;;;;;;1.45;0.68;;;21.40;88.40;;;;;;5072431;28;20052;-85
2023/07/13 00:19:01;;;;;;;3.88;0.80;;;21.30;88.70;;;;;;5072088;28;20021;-90
2023/07/13 00:21:27;;;;;;;1.77;0.80;;;21.30;89.20;;;;;;5071980;28;20028;-87
2023/07/13 00:23:53;;;;;;;3.28;0.60;;;21.30;89.90;;;;;;5071367;28;20024;-85
2023/07/13 00:26:18;;;;;;;2.78;0.77;;;21.20;90.20;;;;;;5071437;28;20035;-85
2023/07/13 00:28:44;;;;;;;7.13;0.85;;;21.20;90.40;;;;;;5071420;28;20025;-83
2023/07/13 00:31:14;;;;;;;2.88;1.05;;;21.20;90.60;;;;;;5074937;28;20457;-85
2023/07/13 00:33:40;;;;;;;3.42;1.00;;;21.20;90.80;;;;;;5076392;28;20027;-84
2023/07/13 00:36:06;;;;;;;1.77;0.50;;;21.10;91.00;;;;;;5075860;28;20025;-82
2023/07/13 00:38:32;;;;;;;22.55;12.15;;;20.90;91.30;;;;;;5077077;28;20029;-79
2023/07/13 00:40:58;;;;;;;14.77;9.90;;;20.80;91.50;;;;;;5074724;28;20025;-79
2023/07/13 00:43:27;;;;;;;5.00;1.70;;;20.80;91.70;;;;;;5076464;28;20116;-86
2023/07/13 00:45:56;;;;;;;3.42;1.25;;;20.80;91.70;;;;;;5075777;28;20055;-83
2023/07/13 00:48:27;;;;;;;1.08;0.68;;;20.80;91.60;;;;;;5083609;28;20012;-83
2023/07/13 00:50:56;;;;;;;2.97;0.80;;;20.80;91.50;;;;;;5078525;28;20036;-83
2023/07/13 00:53:22;;;;;;;1.58;0.80;;;20.80;91.70;;;;;;5059580;28;20020;-82
2023/07/13 00:55:49;;;;;;;1.42;0.70;;;20.80;92.00;;;;;;5074727;28;20093;-82
2023/07/13 00:58:15;;;;;;;3.08;0.70;;;20.70;92.10;;;;;;5076784;28;20047;-82
2023/07/13 01:00:41;;;;;;;1.33;0.63;;;20.70;92.20;;;;;;5076568;28;20358;-83
2023/07/13 01:03:08;;;;;;;2.25;0.70;;;20.60;92.20;;;;;;5075426;28;20020;-82
2023/07/13 01:05:34;;;;;;;1.42;0.63;;;20.60;92.30;;;;;;5076886;28;20016;-86
2023/07/13 01:08:02;;;;;;;2.22;0.80;;;20.60;92.30;;;;;;5076522;28;20020;-85
2023/07/13 01:10:27;;;;;;;1.75;0.85;;;20.50;92.30;;;;;;5075545;28;20021;-84
2023/07/13 01:12:54;;;;;;;1.58;0.52;;;20.50;92.40;;;;;;5075245;28;20039;-82
2023/07/13 01:15:41;;;;;;;2.63;0.60;;;20.50;92.50;;;;;;5075221;28;20025;-87
2023/07/13 01:18:09;;;;;;;4.60;0.82;;;20.40;92.70;;;;;;5078576;28;20020;-91
2023/07/13 01:20:36;;;;;;;1.92;0.60;;;20.40;92.80;;;;;;5081465;28;20024;-90
2023/07/13 01:23:12;;;;;;;1.67;0.70;;;20.40;92.80;;;;;;5076865;28;20020;-90
2023/07/13 01:25:38;;;;;;;2.17;0.75;;;20.40;92.70;;;;;;5076488;28;20472;-88
2023/07/13 01:28:06;;;;;;;0.70;0.63;;;20.40;92.90;;;;;;5075059;28;20029;-88
2023/07/13 01:30:31;;;;;;;3.35;0.80;;;20.40;92.90;;;;;;5074714;28;20035;-88
2023/07/13 01:32:58;;;;;;;4.53;0.70;;;20.40;92.80;;;;;;5074453;28;20507;-87
2023/07/13 01:35:25;;;;;;;4.25;0.70;;;20.40;92.80;;;;;;5075218;28;20016;-88
2023/07/13 01:37:51;;;;;;;2.15;0.88;;;20.30;92.80;;;;;;5075904;28;20012;-86
2023/07/13 01:40:16;;;;;;;4.53;0.95;;;20.30;92.70;;;;;;5074780;28;20025;-87
2023/07/13 01:42:42;;;;;;;4.43;0.90;;;20.30;92.70;;;;;;5074145;28;20107;-87
2023/07/13 01:45:08;;;;;;;2.20;0.60;;;20.20;92.80;;;;;;5074608;28;20056;-89
2023/07/13 01:47:33;;;;;;;8.35;0.93;;;20.20;92.90;;;;;;5075356;28;20372;-85
2023/07/13 01:49:59;;;;;;;2.83;0.70;;;20.20;92.90;;;;;;5094575;28;20520;-86
2023/07/13 01:52:25;;;;;;;3.30;1.00;;;20.20;93.00;;;;;;5082173;28;20029;-87
2023/07/13 01:54:51;;;;;;;2.78;0.90;;;20.20;93.00;;;;;;5074658;28;20027;-88
2023/07/13 01:57:16;;;;;;;4.45;0.95;;;20.20;92.90;;;;;;5075400;28;20032;-87
2023/07/13 01:59:42;;;;;;;1.15;0.60;;;20.20;92.80;;;;;;5073697;28;20055;-84
2023/07/13 02:02:07;;;;;;;1.08;0.65;;;20.20;92.60;;;;;;5073096;28;20028;-83
2023/07/13 02:04:34;;;;;;;1.85;0.60;;;20.20;92.50;;;;;;5074202;28;20549;-87
2023/07/13 02:07:00;;;;;;;3.25;0.80;;;20.20;92.40;;;;;;5073296;28;20020;-86
2023/07/13 02:09:25;;;;;;;2.70;0.80;;;20.20;92.30;;;;;;5076043;28;20066;-90
2023/07/13 02:11:51;;;;;;;2.42;0.82;;;20.20;92.30;;;;;;5077084;28;20406;-90
2023/07/13 02:14:17;;;;;;;5.43;2.35;;;20.20;92.30;;;;;;5075647;28;20070;-88
2023/07/13 02:16:43;;;;;;;3.90;1.10;;;20.20;92.40;;;;;;5075342;28;20466;-92
2023/07/13 02:19:09;;;;;;;3.15;1.50;;;20.20;92.40;;;;;;5086828;28;20056;-91
2023/07/13 02:21:34;;;;;;;5.90;1.02;;;20.20;92.50;;;;;;5074842;28;20032;-92
2023/07/13 02:24:00;;;;;;;2.50;0.90;;;20.20;92.60;;;;;;5075532;28;20534;-92
2023/07/13 02:26:27;;;;;;;1.42;0.65;;;20.10;92.60;;;;;;5074703;28;20041;-90
2023/07/13 02:28:52;;;;;;;2.10;0.40;;;20.10;92.60;;;;;;5075641;28;20036;-90
2023/07/13 02:31:18;;;;;;;2.17;0.70;;;20.10;92.70;;;;;;5075692;28;20036;-90
2023/07/13 02:33:44;;;;;;;5.03;0.70;;;20.10;92.70;;;;;;5076028;28;20080;-90
2023/07/13 02:36:11;;;;;;;3.50;1.20;;;20.10;92.50;;;;;;5073504;28;20017;-90
2023/07/13 02:38:37;;;;;;;1.35;0.65;;;20.00;92.60;;;;;;5074679;28;20115;-91
2023/07/13 02:41:04;;;;;;;3.20;0.80;;;20.00;92.40;;;;;;5075295;28;20112;-92
2023/07/13 02:43:30;;;;;;;4.28;0.80;;;20.10;92.50;;;;;;5074883;28;20051;-90
2023/07/13 02:45:56;;;;;;;2.45;0.90;;;20.00;92.60;;;;;;5074898;28;20048;-90
2023/07/13 02:48:21;;;;;;;3.88;0.90;;;19.90;92.80;;;;;;5080737;28;20023;-90
2023/07/13 02:50:47;;;;;;;4.47;0.80;;;19.90;92.80;;;;;;5099990;28;20030;-86
2023/07/13 02:53:12;;;;;;;1.33;0.73;;;19.90;92.90;;;;;;5076456;28;20062;-89
2023/07/13 02:55:40;;;;;;;3.55;1.02;;;19.90;93.00;;;;;;5074440;28;20373;-86
2023/07/13 02:58:06;;;;;;;1.40;0.85;;;19.90;92.90;;;;;;5074251;28;20020;-83
2023/07/13 03:00:32;;;;;;;2.67;1.00;;;19.90;93.80;;;;;;5073644;28;20017;-83
2023/07/13 03:02:58;;;;;;;1.98;0.88;;;19.70;93.90;;;;;;5073069;28;20370;-87
2023/07/13 03:05:24;;;;;;;3.67;1.00;;;19.60;94.40;;;;;;5073360;28;20017;-87
2023/07/13 03:07:49;;;;;;;3.03;1.00;;;19.50;94.70;;;;;;5072659;28;20020;-86
2023/07/13 03:10:16;;;;;;;1.88;0.73;;;19.40;95.00;;;;;;5074371;28;20028;-87
2023/07/13 03:12:42;;;;;;;2.70;0.85;;;19.20;95.40;;;;;;5074273;28;20048;-87
2023/07/13 03:15:08;;;;;;;2.90;1.15;;;19.20;95.80;;;;;;5073826;28;20654;-87
2023/07/13 03:17:33;;;;;;;5.28;1.10;;;19.10;96.00;;;;;;5069417;28;20024;-86
2023/07/13 03:19:59;;;;;;;4.35;1.17;;;19.10;96.00;;;;;;5073098;28;20025;-84
2023/07/13 03:22:24;;;;;;;5.22;1.17;;;19.20;96.00;;;;;;5072179;28;20055;-80
2023/07/13 03:24:50;;;;;;;3.95;1.10;;;19.10;96.40;;;;;;5073152;28;20103;-82
2023/07/13 03:27:17;;;;;;;1.88;0.80;;;19.00;96.50;;;;;;5072083;28;20025;-80
2023/07/13 03:29:43;;;;;;;2.78;0.90;;;19.00;96.60;;;;;;5072286;28;20480;-79
2023/07/13 03:32:08;;;;;;;1.83;0.80;;;18.80;96.90;;;;;;5071539;28;20028;-79
2023/07/13 03:34:34;;;;;;;4.35;0.80;;;18.80;97.00;;;;;;5072077;28;20059;-79
2023/07/13 03:37:00;;;;;;;4.05;1.10;;;18.90;96.90;;;;;;5071540;28;20044;-80
2023/07/13 03:39:25;;;;;;;3.53;1.20;;;19.00;96.80;;;;;;5072144;28;20445;-79
2023/07/13 03:41:52;;;;;;;2.08;0.70;;;19.00;96.60;;;;;;5071667;28;20123;-80
2023/07/13 03:44:18;;;;;;;1.42;0.90;;;19.10;96.00;;;;;;5072271;28;20059;-80
2023/07/13 03:46:44;;;;;;;1.55;0.90;;;19.20;95.80;;;;;;5072748;28;20075;-80
2023/07/13 03:49:10;;;;;;;4.57;1.17;;;19.30;95.80;;;;;;5071842;28;20078;-80
2023/07/13 03:51:36;;;;;;;1.98;0.93;;;19.20;96.40;;;;;;5073154;28;20462;-80
2023/07/13 03:54:02;;;;;;;4.25;1.00;;;19.10;97.00;;;;;;5071469;28;20040;-80
2023/07/13 03:56:28;;;;;;;2.97;0.95;;;19.10;97.40;;;;;;5071277;28;20465;-80
2023/07/13 03:58:54;;;;;;;2.15;1.20;;;18.80;98.20;;;;;;5071326;28;20028;-80
2023/07/13 04:01:21;;;;;;;2.60;1.13;;;18.80;98.50;;;;;;5071987;28;20111;-79
2023/07/13 04:03:47;;;;;;;2.53;1.02;;;18.80;98.70;;;;;;5072215;28;20111;-78
2023/07/13 04:06:26;;;;;;;1.65;0.80;;;18.80;98.80;;;;;;5071140;28;20189;-80
2023/07/13 04:08:55;;;;;;;3.10;1.20;;;18.80;99.20;;;;;;5073203;28;20024;-80
2023/07/13 04:11:23;;;;;;;5.38;1.00;;;18.80;99.40;;;;;;5071575;28;20036;-80
2023/07/13 04:13:49;;;;;;;1.58;1.20;;;18.80;99.60;;;;;;5072958;28;20016;-80
2023/07/13 04:16:16;;;;;;;2.25;1.05;;;18.80;99.90;;;;;;5068497;28;20032;-80
2023/07/13 04:18:42;;;;;;;2.70;1.10;;;18.80;99.90;;;;;;5072176;28;20021;-80
2023/07/13 04:21:11;;;;;;;1.73;0.80;;;18.60;99.90;;;;;;5071022;28;20086;-79
2023/07/13 04:23:37;;;;;;;2.67;0.82;;;18.60;99.90;;;;;;5068720;28;20025;-80
2023/07/13 04:26:04;;;;;;;4.53;1.20;;;18.60;99.90;;;;;;5067987;28;20025;-80
2023/07/13 04:28:30;;;;;;;3.38;0.95;;;18.60;99.90;;;;;;5071792;28;20032;-80
2023/07/13 04:30:56;;;;;;;2.08;1.10;;;18.60;99.90;;;;;;5072344;28;20021;-80
2023/07/13 04:33:22;;;;;;;3.75;1.42;;;18.80;99.90;;;;;;5075960;28;20070;-80
2023/07/13 04:35:49;;;;;;;2.78;1.08;;;18.70;99.90;;;;;;5085537;28;20118;-80
2023/07/13 04:38:15;;;;;;;4.43;1.35;;;18.80;99.90;;;;;;5085489;28;20028;-80
2023/07/13 04:40:45;;;;;;;3.75;0.90;;;18.90;99.90;;;;;;5086580;28;20021;-80
2023/07/13 04:43:10;;;;;;;4.15;1.10;;;18.90;99.90;;;;;;5085111;28;20082;-79
2023/07/13 04:45:36;;;;;;;1.92;0.80;;;19.00;99.90;;;;;;5085363;28;20052;-79
2023/07/13 04:48:02;;;;;;;1.45;0.85;;;19.00;99.90;;;;;;5085797;28;20032;-78
2023/07/13 04:50:27;;;;;;;1.38;0.88;;;19.00;99.90;;;;;;5084918;28;20020;-79
2023/07/13 04:52:53;;;;;;;3.28;0.98;;;19.10;99.90;;;;;;5085038;28;20030;-78
2023/07/13 04:55:19;;;;;;;2.15;1.10;;;19.20;99.90;;;;;;5084623;28;20519;-79
2023/07/13 04:57:46;;;;;;;4.97;1.33;;;19.20;99.90;;;;;;5084825;28;20084;-79
2023/07/13 05:00:13;;;;;;;4.15;1.20;;;19.20;99.90;;;;;;5084264;28;20016;-77
2023/07/13 05:02:39;;;;;;;2.47;1.27;;;19.20;99.90;;;;;;5084211;28;20089;-78
2023/07/13 05:05:06;;;;;;;1.77;1.10;;;19.30;99.90;;;;;;5084557;28;20025;-80
2023/07/13 05:07:32;;;;;;;4.70;1.20;;;19.40;99.90;;;;;;5084018;28;20017;-79
2023/07/13 05:09:59;;;;;;;4.45;1.10;;;19.30;99.90;;;;;;5084160;28;20077;-79
2023/07/13 05:12:25;;;;;;;2.63;1.00;;;19.30;99.90;;;;;;5084350;28;20040;-78
2023/07/13 05:14:51;;;;;;;3.70;1.33;;;19.30;99.90;;;;;;5083532;28;20012;-79
2023/07/13 05:17:16;;;;;;;5.47;1.20;;;19.30;99.90;;;;;;5084242;28;20027;-78
2023/07/13 05:19:43;;;;;;;4.60;1.10;;;19.40;99.90;;;;;;5086016;28;20020;-79
2023/07/13 05:22:09;;;;;;;3.28;1.00;;;19.40;99.90;;;;;;5072952;28;20048;-77
2023/07/13 05:24:34;;;;;;;2.85;1.00;;;19.40;99.90;;;;;;5074030;28;20017;-78
2023/07/13 05:27:00;;;;;;;6.55;1.35;;;19.40;99.90;;;;;;5072987;28;20031;-78
2023/07/13 05:29:25;;;;;;;5.10;1.00;;;19.50;99.90;;;;;;5073943;28;20376;-79
2023/07/13 05:31:51;;;;;;;3.10;1.10;;;19.50;99.90;;;;;;5073069;28;20115;-79
2023/07/13 05:34:17;;;;;;;3.05;0.98;;;19.50;99.80;;;;;;5075068;28;20452;-79
2023/07/13 05:36:42;;;;;;;4.45;0.85;;;19.60;99.50;;;;;;5075096;28;20017;-78
2023/07/13 05:39:08;;;;;;;4.43;1.00;;;19.60;99.30;;;;;;5072751;28;20511;-78
2023/07/13 05:41:35;;;;;;;3.30;1.20;;;19.70;99.20;;;;;;5073255;28;20028;-79
2023/07/13 05:44:00;;;;;;;4.55;1.30;;;19.70;99.30;;;;;;5073149;28;20028;-79
2023/07/13 05:46:26;;;;;;;5.43;1.77;;;19.80;99.70;;;;;;5073337;28;20389;-79
2023/07/13 05:48:51;;;;;;;5.03;1.13;;;19.80;99.00;;;;;;5074181;28;20024;-80
2023/07/13 05:51:17;;;;;;;4.20;1.40;;;19.90;98.80;;;;;;5074014;28;20598;-78
2023/07/13 05:53:42;;;;;;;2.78;1.48;;;19.90;98.70;;;;;;5074414;28;20021;-79
2023/07/13 05:56:08;;;;;;;3.00;1.30;;;19.90;98.60;;;;;;5073346;28;20099;-79
2023/07/13 05:58:34;;;;;;;4.68;1.23;;;19.90;98.50;;;;;;5075424;28;20507;-79
2023/07/13 06:01:03;;;;;;;3.88;0.90;;;19.90;98.80;;;;;;5073524;28;20070;-80
2023/07/13 06:03:29;;;;;;;4.32;1.50;;;19.90;98.60;;;;;;5075418;28;20081;-80
2023/07/13 06:05:55;;;;;;;3.22;1.45;;;20.00;98.70;;;;;;5073210;28;20017;-80
2023/07/13 06:08:20;;;;;;;3.67;1.38;;;20.00;98.30;;;;;;5074125;28;20023;-81
2023/07/13 06:10:46;;;;;;;4.22;1.10;;;20.00;98.00;;;;;;5074233;28;20027;-81
2023/07/13 06:13:12;;;;;;;5.20;1.08;;;20.00;98.00;;;;;;5075119;28;20020;-81
2023/07/13 06:15:37;;;;;;;1.63;1.00;;;20.10;97.80;;;;;;5075376;28;20091;-80
2023/07/13 06:18:03;;;;;;;3.95;1.10;;;20.00;97.70;;;;;;5074744;28;20570;-81
2023/07/13 06:20:29;;;;;;;5.50;1.05;;;20.10;97.70;;;;;;5073125;28;20442;-81
2023/07/13 06:22:54;;;;;;;2.60;0.75;;;20.10;97.10;;;;;;5072992;28;20032;-81
2023/07/13 06:25:20;;;;;;;2.28;0.90;;;20.10;97.10;;;;;;5073752;28;20117;-81
2023/07/13 06:27:46;;;;;;;2.05;1.13;;;20.10;97.00;;;;;;5073482;28;20059;-81
2023/07/13 06:30:12;;;;;;;7.72;1.35;;;20.10;96.90;;;;;;5074302;28;20060;-80
2023/07/13 06:32:38;;;;;;;6.25;1.05;;;20.20;97.00;;;;;;5073781;28;20059;-81
2023/07/13 06:35:04;;;;;;;2.90;1.10;;;20.20;97.00;;;;;;5074296;28;20016;-81
2023/07/13 06:37:29;;;;;;;4.35;0.90;;;20.20;97.00;;;;;;5073116;28;20025;-80
2023/07/13 06:39:55;;;;;;;5.75;1.30;;;20.20;97.30;;;;;;5072676;28;20016;-81
2023/07/13 06:42:20;;;;;;;4.72;1.20;;;20.20;97.40;;;;;;5073741;28;20031;-80
2023/07/13 06:44:46;;;;;;;3.90;1.10;;;20.20;97.50;;;;;;5072978;28;20063;-80
2023/07/13 06:47:12;;;;;;;3.03;1.40;;;20.20;97.90;;;;;;5073180;28;20027;-80
2023/07/13 06:49:37;;;;;;;3.60;1.30;;;20.20;97.60;;;;;;5073487;28;20047;-81
2023/07/13 06:52:03;;;;;;;6.10;1.20;;;20.30;97.60;;;;;;5072810;28;20055;-81
2023/07/13 06:54:29;;;;;;;5.22;1.05;;;20.40;97.70;;;;;;5072859;28;20016;-81
2023/07/13 06:56:55;;;;;;;7.85;1.27;;;20.40;97.30;;;;;;5071731;28;20024;-81
2023/07/13 06:59:20;;;;;;;3.67;1.20;;;20.40;97.50;;;;;;5073184;28;20525;-80
2023/07/13 07:01:46;;;;;;;5.35;1.08;;;20.40;97.50;;;;;;5073264;28;20086;-80
2023/07/13 07:04:11;;;;;;;3.40;1.30;;;20.40;97.00;;;;;;5072623;28;20023;-81
2023/07/13 07:06:37;;;;;;;1.98;0.95;;;20.40;96.50;;;;;;5073293;28;20035;-81
2023/07/13 07:09:03;;;;;;;2.35;0.85;;;20.50;96.70;;;;;;5073966;28;20453;-81
2023/07/13 07:11:29;;;;;;;4.63;1.13;;;20.50;96.00;;;;;;5074007;28;20032;-81
2023/07/13 07:13:54;;;;;;;3.05;0.70;;;20.60;95.90;;;;;;5073887;28;20032;-81
2023/07/13 07:16:21;;;;;;;2.15;0.90;;;20.60;95.30;;;;;;5072845;28;20021;-81
2023/07/13 07:18:47;;;;;;;5.00;1.00;;;20.60;95.50;;;;;;5073227;28;20020;-81
2023/07/13 07:21:13;;;;;;;5.18;1.55;;;20.60;95.60;;;;;;5072266;28;20027;-81
2023/07/13 07:23:39;;;;;;;2.92;1.30;;;20.70;95.20;;;;;;5071798;28;20024;-80
2023/07/13 07:26:08;;;;;;;4.05;1.20;;;20.70;94.50;;;;;;5072001;28;20028;-81
2023/07/13 07:28:34;;;;;;;2.60;1.13;;;20.80;93.80;;;;;;5073949;28;20028;-81
2023/07/13 07:30:59;;;;;;;2.15;0.82;;;20.80;94.20;;;;;;5073178;28;20453;-81
2023/07/13 07:33:25;;;;;;;3.47;1.17;;;20.80;93.90;;;;;;5072841;28;20025;-81
2023/07/13 07:35:51;;;;;;;4.78;1.00;;;20.90;93.70;;;;;;5072378;28;20059;-81
2023/07/13 07:38:17;;;;;;;2.85;0.85;;;20.90;93.60;;;;;;5072761;28;20044;-81
2023/07/13 07:40:43;;;;;;;4.47;1.15;;;20.90;92.60;;;;;;5071894;28;20054;-79
2023/07/13 07:43:10;;;;;;;3.92;0.85;;;20.90;91.70;;;;;;5071866;28;20086;-78
2023/07/13 07:45:37;;;;;;;3.35;1.83;;;20.90;91.70;;;;;;5071792;28;20083;-79
2023/07/13 07:48:04;;;;;;;3.92;1.23;;;20.90;92.30;;;;;;5071332;28;20459;-79
2023/07/13 07:50:30;;;;;;;3.75;0.88;;;21.00;91.80;;;;;;5071700;28;20021;-79
2023/07/13 07:52:56;;;;;;;3.25;0.63;;;21.00;91.90;;;;;;5071717;28;20397;-79
2023/07/13 07:55:22;;;;;;;3.67;0.90;;;21.10;91.50;;;;;;5071818;28;20058;-79
2023/07/13 07:57:48;;;;;;;6.00;0.80;;;21.10;91.10;;;;;;5072376;28;20035;-84
2023/07/13 08:00:14;;;;;;;3.75;0.90;;;21.10;91.10;;;;;;5070653;28;20017;-79
2023/07/13 08:02:41;;;;;;;2.80;0.82;;;21.20;90.80;;;;;;5071688;28;20063;-80
2023/07/13 08:05:07;;;;;;;5.35;1.17;;;21.30;91.40;;;;;;5071259;28;20027;-78
2023/07/13 08:07:34;;;;;;;9.57;0.90;;;21.40;91.00;;;;;;5072893;28;20472;-79
2023/07/13 08:10:00;;;;;;;3.10;0.75;;;21.40;91.40;;;;;;5079427;28;20025;-87
2023/07/13 08:12:25;;;;;;;4.72;0.70;;;21.40;91.30;;;;;;5072232;28;20028;-82
2023/07/13 08:14:57;;;;;;;4.60;1.15;;;21.50;91.40;;;;;;5071628;28;20396;-80
2023/07/13 08:17:23;;;;;;;;;;;21.50;91.80;;;;;;5072632;28;20473;-86
2023/07/13 08:19:48;;;;;;;3.13;0.98;;;21.60;91.00;;;;;;5070944;28;19901;-87
2023/07/13 08:22:14;;;;;;;3.63;0.75;;;21.60;90.90;;;;;;5071590;28;20128;-88
2023/07/13 08:24:42;;;;;;;2.45;0.70;;;21.70;89.30;;;;;;5071370;28;20020;-84
2023/07/13 08:27:07;;;;;;;3.65;0.80;;;21.70;90.00;;;;;;5071830;28;20105;-86
2023/07/13 08:29:33;;;;;;;5.30;1.02;;;21.80;90.20;;;;;;5071273;28;20020;-90
2023/07/13 08:31:59;;;;;;;6.25;0.93;;;21.80;90.30;;;;;;5073110;28;20111;-88
2023/07/13 08:34:25;;;;;;;1.33;0.82;;;21.80;90.10;;;;;;5072071;28;20025;-86
2023/07/13 08:36:50;;;;;;;1.40;0.90;;;22.00;90.70;;;;;;5071539;28;20027;-84
2023/07/13 08:39:16;;;;;;;7.40;1.40;;;22.00;90.60;;;;;;5072702;28;20027;-87
2023/07/13 08:41:42;;;;;;;2.95;0.88;;;22.00;89.10;;;;;;5072055;28;20025;-84
2023/07/13 08:44:22;;;;;;;3.58;0.85;;;22.00;89.30;;;;;;5071597;28;20127;-83
2023/07/13 08:46:50;;;;;;;3.95;1.15;;;22.00;88.90;;;;;;5072851;28;20040;-83
2023/07/13 08:49:22;;;;;;;3.63;0.70;;;22.10;88.00;;;;;;5071621;28;20017;-82
2023/07/13 08:51:59;;;;;;;2.80;0.80;;;22.10;87.30;;;;;;5073675;28;20032;-84
2023/07/13 08:54:36;;;;;;;3.33;0.73;;;22.10;87.30;;;;;;5075151;28;20021;-85
2023/07/13 08:57:10;;;;;;;3.55;0.50;;;22.10;87.60;;;;;;5074949;28;20032;-83
2023/07/13 08:59:36;;;;;;;3.55;0.60;;;22.10;85.50;;;;;;5072550;28;20040;-82
2023/07/13 09:02:28;;;;;;;2.78;0.90;;;22.20;85.90;;;;;;5073831;28;20485;-84
2023/07/13 09:05:01;;;;;;;3.60;0.65;;;22.30;85.10;;;;;;5074892;28;20069;-84
2023/07/13 09:07:41;;;;;;;5.82;0.80;;;22.30;85.00;;;;;;5074561;28;20258;-87
2023/07/13 09:10:30;;;;;;;1.90;0.70;;;22.30;85.00;;;;;;5074279;28;20012;-84
2023/07/13 09:13:16;;;;;;;2.05;0.90;;;22.30;85.70;;;;;;5070529;28;20036;-85
2023/07/13 09:15:45;;;;;;;1.38;0.77;;;22.40;86.10;;;;;;5073315;28;20048;-90
2023/07/13 09:18:28;;;;;;;2.08;0.57;;;22.50;83.30;;;;;;5075045;28;20112;-86
2023/07/13 09:20:56;;;;;;;1.63;0.50;;;22.50;82.70;;;;;;5075204;28;20111;-82
2023/07/13 09:23:24;;;;;;;1.85;0.57;;;22.60;84.90;;;;;;5074703;28;20047;-83
2023/07/13 09:25:59;;;;;;;1.65;0.50;;;22.60;83.40;;;;;;5073557;28;20027;-81
2023/07/13 09:28:33;;;;;;;3.50;0.82;;;22.70;83.40;;;;;;5074221;28;20071;-84
2023/07/13 09:31:12;;;;;;;2.35;0.80;;;22.70;83.30;;;;;;5077233;28;20090;-92
2023/07/13 09:33:38;;;;;;;4.25;0.73;;;22.60;83.70;;;;;;5083276;28;20214;-90
2023/07/13 09:36:28;;;;;;;1.85;0.75;;;22.70;81.90;;;;;;5080245;28;20060;-89
2023/07/13 09:39:12;;;;;;;2.22;0.98;;;22.70;82.80;;;;;;5071385;28;20073;-86
2023/07/13 09:42:17;;;;;;;4.00;0.75;;;22.80;82.20;;;;;;5074237;28;20055;-86
2023/07/13 09:44:52;;;;;;;0.95;0.70;;;22.80;82.30;;;;;;5054791;28;20037;-85
2023/07/13 09:47:25;;;;;;;2.47;0.90;;;22.90;81.60;;;;;;5074018;28;20104;-86
2023/07/13 09:50:00;;;;;;;3.92;0.73;;;23.00;81.00;;;;;;5075027;28;20013;-83
2023/07/13 09:52:27;;;;;;;2.58;0.80;;;23.00;81.00;;;;;;5075051;28;20089;-86
2023/07/13 09:54:59;;;;;;;1.50;0.55;;;23.20;81.20;;;;;;5073639;28;20081;-82
2023/07/13 09:57:25;;;;;;;;;;;23.20;80.10;;;;;;5074670;28;20029;-93
2023/07/13 09:59:53;;;;;;;7.10;1.00;;;23.40;79.80;;;;;;5073946;28;20475;-86
2023/07/13 10:02:34;;;;;;;4.15;0.70;;;23.40;79.50;;;;;;5075293;28;20031;-83
2023/07/13 10:05:13;;;;;;;1.40;0.70;;;23.50;78.70;;;;;;5074089;28;20017;-82
2023/07/13 10:07:43;;;;;;;2.38;0.80;;;23.60;78.90;;;;;;5054724;28;20025;-83
2023/07/13 10:10:22;;;;;;;2.00;0.77;;;23.70;78.90;;;;;;5073192;28;20031;-88
2023/07/13 10:12:49;;;;;;;1.90;1.00;;;23.80;78.80;;;;;;5074105;28;20485;-85
2023/07/13 10:15:19;;;;;;;4.00;0.70;;;23.70;78.90;;;;;;5074025;28;20050;-88
2023/07/13 10:17:45;;;;;;;3.03;0.70;;;23.60;78.50;;;;;;5075369;28;20358;-85
2023/07/13 10:20:12;;;;;;;1.65;0.60;;;23.50;78.20;;;;;;5062536;28;20634;-86
2023/07/13 10:23:02;;;;;;;5.43;1.02;;;23.50;79.10;;;;;;5074108;28;20025;-85
2023/07/13 10:25:32;;;;;;;2.55;0.80;;;23.50;79.70;;;;;;5073166;28;20032;-93
2023/07/13 10:28:26;;;;;;;1.92;0.80;;;23.60;79.50;;;;;;5073201;28;20450;-85
2023/07/13 10:30:54;;;;;;;11.90;5.60;;;23.60;79.80;;;;;;5072622;28;20035;-85
2023/07/13 10:33:20;;;;;;;4.43;1.23;;;23.70;79.10;;;;;;5072632;28;20477;-88
2023/07/13 10:35:48;;;;;;;3.28;0.90;;;23.80;79.00;;;;;;5073215;28;20404;-85
2023/07/13 10:38:20;;;;;;;3.28;0.77;;;23.90;77.60;;;;;;5076225;28;20020;-83
2023/07/13 10:41:10;;;;;;;3.90;0.65;;;24.00;77.80;;;;;;5081333;28;20077;-89
2023/07/13 10:43:50;;;;;;;2.50;0.60;;;24.00;77.30;;;;;;5069775;28;20060;-87
2023/07/13 10:46:20;;;;;;;4.10;0.80;;;24.00;77.70;;;;;;5062550;28;20047;-85
2023/07/13 10:48:51;;;;;;;3.13;0.88;;;24.10;76.90;;;;;;5074422;28;20477;-85
2023/07/13 10:51:20;;;;;;;2.95;1.13;;;24.10;77.50;;;;;;5073835;28;20454;-91
2023/07/13 10:53:47;;;;;;;2.20;0.85;;;24.20;77.30;;;;;;5074246;28;20029;-93
2023/07/13 10:56:21;;;;;;;2.17;0.70;;;24.20;76.70;;;;;;5073193;28;20078;-96
2023/07/13 10:59:00;;;;;;;7.30;0.90;;;24.20;76.40;;;;;;5075107;28;20021;-92
2023/07/13 11:01:40;;;;;;;4.00;0.85;;;24.40;76.60;;;;;;5075178;28;20097;-96
2023/07/13 11:04:12;;;;;;;4.88;1.00;;;24.50;76.20;;;;;;5073506;28;20115;-89
2023/07/13 11:06:41;;;;;;;4.50;1.00;;;24.50;75.80;;;;;;5072360;28;20361;-82
2023/07/13 11:09:21;;;;;;;2.15;1.30;;;24.60;75.10;;;;;;5072129;28;20020;-85
2023/07/13 11:11:47;;;;;;;3.20;0.80;;;24.60;74.90;;;;;;5070780;28;20429;-86
2023/07/13 11:14:51;;;;;;;5.32;0.73;;;24.70;75.00;;;;;;5071790;28;20021;-87
2023/07/13 11:17:37;;;;;;;2.85;0.77;;;24.70;74.10;;;;;;5072931;28;20020;-86
2023/07/13 11:20:19;;;;;;;5.13;1.00;;;24.50;74.00;;;;;;5072656;28;20028;-86
2023/07/13 11:22:50;;;;;;;3.47;0.82;;;24.50;75.20;;;;;;5073238;28;20028;-86
2023/07/13 11:25:33;;;;;;;0.60;0.60;;;24.50;74.50;;;;;;5073799;28;20016;-85
2023/07/13 11:28:11;;;;;;;1.52;0.70;;;24.30;73.90;;;;;;5072261;28;20056;-91
2023/07/13 11:30:47;;;;;;;8.35;0.80;;;24.20;73.60;;;;;;5073368;28;20084;-90
2023/07/13 11:33:15;;;;;;;2.25;0.85;;;24.20;73.80;;;;;;5072905;28;20087;-91
2023/07/13 11:36:03;;;;;;;2.35;0.88;;;24.20;74.10;;;;;;5072208;28;20017;-85
2023/07/13 11:38:40;;;;;;;3.42;1.00;;;24.20;74.20;;;;;;5064793;28;20052;-85
2023/07/13 11:41:22;;;;;;;4.70;1.10;;;24.30;73.90;;;;;;5071501;28;20024;-85
2023/07/13 11:43:53;;;;;;;2.05;0.80;;;24.40;73.60;;;;;;5070491;28;20028;-88
2023/07/13 11:46:25;;;;;;;2.85;0.77;;;24.60;73.40;;;;;;5073059;28;20097;-86
2023/07/13 11:48:51;;;;;;;;;;;24.80;73.30;;;;;;5074510;28;20017;-84
2023/07/13 11:51:43;;;;;;;3.40;0.73;;;24.90;72.50;;;;;;5074018;28;20095;-83
2023/07/13 11:54:29;;;;;;;0.88;0.60;;;25.00;71.90;;;;;;5072055;28;20044;-89
2023/07/13 11:57:01;;;;;;;1.98;0.98;;;25.20;71.50;;;;;;5072504;28;20024;-89
2023/07/13 11:59:28;;;;;;;4.50;0.98;;;25.30;72.30;;;;;;5072814;28;20028;-90
2023/07/13 12:01:55;;;;;;;5.50;0.85;;;25.40;70.50;;;;;;5072389;28;20028;-89
2023/07/13 12:04:27;;;;;;;2.92;0.90;;;25.40;70.20;;;;;;5073689;28;20021;-86
2023/07/13 12:07:04;;;;;;;2.65;0.73;;;25.50;69.00;;;;;;5071758;28;20340;-87
2023/07/13 12:09:30;;;;;;;1.48;0.50;;;25.40;68.00;;;;;;5071925;28;20027;-88
2023/07/13 12:11:57;;;;;;;0.82;0.50;;;25.30;68.00;;;;;;5071631;28;20036;-93
2023/07/13 12:14:24;;;;;;;3.45;0.68;;;25.40;68.20;;;;;;5071698;28;20020;-90
2023/07/13 12:16:50;;;;;;;2.58;0.90;;;25.40;67.80;;;;;;5071405;28;20489;-90
2023/07/13 12:19:22;;;;;;;4.05;0.98;;;25.40;67.00;;;;;;5072029;28;20067;-90
2023/07/13 12:21:49;;;;;;;3.33;0.70;;;25.40;68.10;;;;;;5072410;28;20047;-92
2023/07/13 12:24:20;;;;;;;2.35;1.20;;;25.40;67.80;;;;;;5073096;28;20020;-87
2023/07/13 12:26:52;;;;;;;1.15;0.73;;;25.40;68.10;;;;;;5073204;28;20016;-88
2023/07/13 12:29:18;;;;;;;2.05;0.80;;;25.50;66.80;;;;;;5075283;28;20028;-89
2023/07/13 12:31:48;;;;;;;4.00;0.90;;;25.70;66.70;;;;;;5077432;28;20103;-86
2023/07/13 12:34:16;;;;;;;4.47;0.80;;;25.80;65.90;;;;;;5071722;28;20028;-85
2023/07/13 12:36:48;;;;;;;3.78;0.60;;;26.00;65.10;;;;;;5075540;28;20024;-85
2023/07/13 12:39:25;;;;;;;4.60;0.70;;;25.90;64.70;;;;;;5075574;28;20377;-86
2023/07/13 12:41:53;;;;;;;3.00;0.60;;;25.80;64.20;;;;;;5075755;28;20568;-86
2023/07/13 12:44:26;;;;;;;3.20;0.82;;;26.10;64.40;;;;;;5076548;28;20024;-85
2023/07/13 12:46:55;;;;;;;2.15;0.70;;;26.40;63.90;;;;;;5075442;28;20037;-84
2023/07/13 12:49:26;;;;;;;1.40;0.60;;;26.70;63.20;;;;;;5075731;28;20151;-83
2023/07/13 12:52:00;;;;;;;1.80;0.60;;;26.90;60.80;;;;;;5067701;28;20032;-85
2023/07/13 12:54:27;;;;;;;2.70;0.68;;;27.10;61.00;;;;;;5071335;28;20031;-85
2023/07/13 12:56:56;;;;;;;3.60;1.02;;;27.20;59.90;;;;;;5075846;28;20484;-82